Hootenville, Louisiana
Current Conditions -  °F | °C
As of 3:53 PM on Saturday 20 Dec 2014 (Local Time) from KASD Reporting Station
Overcast Overcast  
Wind Chill: 53°   Ceiling: 1100
Heat Index: 53°   Visibility: 10mi
Dew Point: 47°   Wind: 9mph
Humidity: 80%   Direction: 10°N
Pressure: 30.11"   Gusts: NA
Location:  30.3898°N, 90.0068°W
Report Text: KASD 202153Z AUTO 01008KT 10SM OVC011 12/08 A3011 RMK AO2 SLP196 T01170083
Loading
Personal Weather Stations






























Interactive Weather Map New forecast layout! Learn more

10-Day Weather Forecast

Advertisements
Track Severe Weather on mobile